NCAR-RAP Real-Time Weather Data

Output produced by METARs form (12 August 2020  18:29 UTC)
found at http://weather.rap.ucar.edu/surface/
 
KDBQ 121753Z 17009KT 10SM CLR 26/19 A3011 RMK AO2 SLP192 T02610189 10261 20161 50001
KDBQ 121653Z 14013G17KT 10SM CLR 25/18 A3011 RMK AO2 SLP193 T02500183
KDBQ 121553Z 16010KT 10SM CLR 24/17 A3011 RMK AO2 SLP193 T02390167
KDBQ 121453Z 17010KT 10SM CLR 23/17 A3011 RMK AO2 SLP191 T02280167 55001
KDBQ 121353Z 13009KT 10SM CLR 22/16 A3010 RMK AO2 SLP188 T02170161
KDBQ 121253Z 14004KT 10SM CLR 20/16 A3012 RMK AO2 SLP193 T02000161
KDBQ 121153Z 03003KT 10SM CLR 16/15 A3011 RMK AO2 SLP192 T01610150 10167 20144 51007
KDBQ 121053Z 00000KT 10SM CLR 15/14 A3011 RMK AO2 SLP192 T01500139
KDBQ 120953Z AUTO 00000KT 10SM CLR 16/14 A3010 RMK AO2 SLP189 T01610139 TSNO
KDBQ 120853Z AUTO 00000KT 10SM CLR 15/14 A3009 RMK AO2 SLP185 T01500139 53010
KDBQ 120753Z AUTO 00000KT 10SM CLR 16/14 A3008 RMK AO2 SLP181 T01560139
KDBQ 120653Z AUTO 00000KT 10SM CLR 16/14 A3007 RMK AO2 SLP178 T01560144
KDBQ 120553Z AUTO 00000KT 10SM CLR 16/14 A3006 RMK AO2 SLP175 T01560144 10250 20156 402780128 53005
KDBQ 120453Z AUTO 00000KT 10SM CLR 17/15 A3005 RMK AO2 SLP170 T01670150
KDBQ 120353Z AUTO 00000KT 10SM CLR 17/16 A3005 RMK AO2 SLP172 T01670156
KDBQ 120253Z AUTO 00000KT 10SM CLR 18/16 A3005 RMK AO2 SLP170 T01780156 53002
KDBQ 120153Z AUTO 11004KT 10SM CLR 21/16 A3004 RMK AO2 SLP167 T02060161
KDBQ 120053Z 12003KT 10SM CLR 23/16 A3003 RMK AO2 SLP166 T02330161
KDBQ 112353Z 16003KT 10SM CLR 25/16 A3004 RMK AO2 SLP169 T02500161 10278 20250 51002
KDBQ 112253Z 00000KT 10SM CLR 26/15 A3004 RMK AO2 SLP168 T02560150
KDBQ 112153Z 20004KT 10SM CLR 26/15 A3004 RMK AO2 SLP168 T02560150
KDBQ 112053Z 00000KT 10SM CLR 27/14 A3003 RMK AO2 SLP165 T02670139 58005
KDBQ 111953Z 00000KT 10SM CLR 27/13 A3004 RMK AO2 SLP168 T02670133